createdAt,value
2017-07-21T00:02:01.799Z,73.70
2017-07-21T00:04:30.846Z,72.40
2017-07-21T00:06:59.122Z,75.30
2017-07-21T00:09:28.214Z,77.50
2017-07-21T00:11:57.655Z,74.60
2017-07-21T00:14:25.932Z,73.60
2017-07-21T00:16:54.247Z,73.60
2017-07-21T00:19:22.522Z,72.60
2017-07-21T00:21:51.566Z,73.00
2017-07-21T00:24:21.039Z,74.70
2017-07-21T00:26:49.702Z,71.10
2017-07-21T00:31:48.708Z,72.40
2017-07-21T00:34:18.123Z,73.20
2017-07-21T00:36:46.386Z,72.80
2017-07-21T00:39:14.706Z,73.90
2017-07-21T00:44:12.504Z,70.10
2017-07-21T00:46:40.872Z,72.70
2017-07-21T00:49:09.182Z,70.30
2017-07-21T00:51:38.239Z,72.90
2017-07-21T00:54:08.083Z,72.20
2017-07-21T00:56:37.894Z,72.00
2017-07-21T00:59:06.171Z,71.40
2017-07-21T01:01:34.507Z,73.70
2017-07-21T01:04:03.548Z,74.80
2017-07-21T01:06:32.613Z,74.40
2017-07-21T01:09:01.731Z,73.80
2017-07-21T01:11:29.999Z,75.00
2017-07-21T01:13:58.283Z,74.30
2017-07-21T01:16:26.633Z,75.10
2017-07-21T01:18:56.433Z,75.70
2017-07-21T01:21:24.711Z,76.80
2017-07-21T01:23:53.031Z,76.00
2017-07-21T01:26:22.443Z,76.30
2017-07-21T01:28:50.718Z,75.10
2017-07-21T01:31:19.076Z,74.00
2017-07-21T01:33:47.372Z,74.50
2017-07-21T01:36:15.634Z,73.90
2017-07-21T01:38:43.954Z,73.90
2017-07-21T01:41:12.245Z,74.00
2017-07-21T01:44:00.721Z,74.30
2017-07-21T01:46:29.387Z,75.30
2017-07-21T01:48:58.799Z,74.20
2017-07-21T01:51:27.542Z,75.00
2017-07-21T01:56:25.717Z,75.50
2017-07-21T01:58:54.027Z,77.20
2017-07-21T02:01:22.296Z,76.80
2017-07-21T02:03:50.566Z,76.70
2017-07-21T02:06:20.409Z,77.70
2017-07-21T02:08:48.678Z,76.40
2017-07-21T02:11:16.959Z,78.30
2017-07-21T02:13:45.274Z,79.10
2017-07-21T02:16:15.055Z,79.50
2017-07-21T02:18:43.338Z,79.00
2017-07-21T02:21:12.109Z,79.00
2017-07-21T02:23:41.920Z,77.40
2017-07-21T02:26:10.203Z,79.70
2017-07-21T02:28:39.302Z,80.30
2017-07-21T02:31:07.594Z,78.80
2017-07-21T02:33:35.868Z,79.60
2017-07-21T02:36:05.710Z,79.40
2017-07-21T02:38:33.982Z,79.20
2017-07-21T02:41:02.258Z,79.30
2017-07-21T02:43:30.580Z,77.80
2017-07-21T02:45:58.867Z,77.40
2017-07-21T02:48:28.274Z,77.30
2017-07-21T02:50:56.708Z,77.60
2017-07-21T02:53:24.982Z,76.70
2017-07-21T02:55:53.252Z,77.30
2017-07-21T02:58:21.570Z,77.80
2017-07-21T03:00:51.354Z,78.60
2017-07-21T03:03:19.626Z,78.90
2017-07-21T03:05:47.958Z,77.50
2017-07-21T03:08:16.991Z,78.90
2017-07-21T03:10:46.402Z,77.80
2017-07-21T03:13:15.498Z,79.80
2017-07-21T03:15:43.782Z,80.90
2017-07-21T03:18:13.587Z,81.00
2017-07-21T03:20:41.936Z,82.70
2017-07-21T03:23:23.667Z,82.40
2017-07-21T03:25:52.006Z,83.30
2017-07-21T03:28:20.675Z,82.10
2017-07-21T03:30:48.964Z,82.40
2017-07-21T03:33:17.286Z,82.30
2017-07-21T03:35:46.695Z,82.60
2017-07-21T03:38:15.362Z,83.30
2017-07-21T03:40:43.710Z,83.00
2017-07-21T03:43:13.503Z,83.70
2017-07-21T03:45:41.791Z,84.30
2017-07-21T03:48:10.948Z,85.30
2017-07-21T03:50:40.135Z,83.90
2017-07-21T03:53:09.191Z,84.00
2017-07-21T03:58:07.428Z,84.40
2017-07-21T04:00:35.698Z,83.80
2017-07-21T04:03:04.017Z,85.10
2017-07-21T04:05:32.283Z,83.60
2017-07-21T04:08:00.955Z,84.40
2017-07-21T04:10:30.083Z,84.60
2017-07-21T04:12:59.123Z,85.90
2017-07-21T04:15:28.174Z,85.00
2017-07-21T04:17:57.297Z,85.00
2017-07-21T04:20:26.734Z,83.20
2017-07-21T04:22:55.074Z,82.60
2017-07-21T04:27:53.295Z,82.10
2017-07-21T04:30:21.567Z,81.50
2017-07-21T04:32:49.893Z,82.60
2017-07-21T04:35:18.926Z,83.50
2017-07-21T04:37:47.204Z,85.00
2017-07-21T04:42:45.448Z,83.40
2017-07-21T04:45:14.114Z,84.60
2017-07-21T04:47:42.473Z,82.30
2017-07-21T04:50:10.762Z,81.50
2017-07-21T04:52:40.191Z,81.70
2017-07-21T04:55:08.554Z,85.60
2017-07-21T04:57:36.831Z,84.50
2017-07-21T05:00:05.106Z,84.70
2017-07-21T05:02:33.443Z,85.30
2017-07-21T05:07:31.218Z,84.50
2017-07-21T05:10:00.684Z,85.30
2017-07-21T05:12:29.734Z,85.30
2017-07-21T05:14:58.778Z,86.10
2017-07-21T05:17:27.127Z,87.00
2017-07-21T05:19:55.406Z,88.40
2017-07-21T05:22:25.186Z,89.20
2017-07-21T05:24:53.498Z,88.20
2017-07-21T05:27:21.776Z,88.60
2017-07-21T05:29:50.062Z,88.20
2017-07-21T05:32:18.379Z,88.20
2017-07-21T05:34:46.678Z,88.30
2017-07-21T05:37:14.962Z,85.20
2017-07-21T05:39:44.799Z,88.90
2017-07-21T05:42:14.594Z,84.20
2017-07-21T05:44:42.890Z,81.60
2017-07-21T05:47:12.895Z,84.70
2017-07-21T05:49:42.327Z,81.00
2017-07-21T05:54:40.574Z,79.90
2017-07-21T05:57:09.604Z,79.40
2017-07-21T05:59:38.667Z,78.00
2017-07-21T06:02:07.019Z,79.00
2017-07-21T06:04:35.287Z,79.80
2017-07-21T06:07:03.562Z,79.60
2017-07-21T06:09:31.899Z,81.60
2017-07-21T06:12:01.306Z,80.70
2017-07-21T06:14:29.582Z,81.60
2017-07-21T06:16:57.938Z,79.60
2017-07-21T06:19:26.994Z,79.10
2017-07-21T06:21:56.039Z,82.50
2017-07-21T06:24:24.354Z,77.60
2017-07-21T06:26:52.634Z,77.30
2017-07-21T06:29:20.912Z,74.10
2017-07-21T06:31:49.248Z,75.60
2017-07-21T06:39:16.571Z,75.50
2017-07-21T06:41:44.850Z,73.40
2017-07-21T06:44:13.148Z,72.40
2017-07-21T06:46:41.475Z,73.10
2017-07-21T06:49:09.775Z,72.40
2017-07-21T06:54:08.413Z,70.10
2017-07-21T06:56:38.206Z,67.90
2017-07-21T06:59:06.491Z,68.50
2017-07-21T07:01:36.306Z,68.40
2017-07-21T07:04:04.583Z,68.80
2017-07-21T07:06:34.362Z,66.30
2017-07-21T07:09:02.702Z,64.10
2017-07-21T07:11:30.981Z,64.10
2017-07-21T07:13:59.255Z,63.10
2017-07-21T07:18:57.506Z,62.00
2017-07-21T07:21:26.558Z,60.00
2017-07-21T07:23:54.893Z,58.90
2017-07-21T07:26:23.171Z,58.60
2017-07-21T07:28:51.446Z,57.80
2017-07-21T07:31:19.777Z,57.60
2017-07-21T07:33:48.819Z,57.60
2017-07-21T07:36:17.087Z,56.80
2017-07-21T07:38:45.411Z,58.00
2017-07-21T07:43:48.018Z,56.80
2017-07-21T07:46:16.291Z,57.00
2017-07-21T07:48:45.334Z,55.70
2017-07-21T07:51:14.435Z,55.50
2017-07-21T07:53:42.722Z,56.50
2017-07-21T07:56:12.134Z,55.00
2017-07-21T07:58:41.237Z,54.40
2017-07-21T08:01:10.395Z,54.90
2017-07-21T08:03:38.689Z,57.30
2017-07-21T08:06:08.540Z,57.50
2017-07-21T08:08:36.819Z,53.80
2017-07-21T08:11:05.103Z,53.70
2017-07-21T08:13:33.421Z,51.60
2017-07-21T08:16:01.699Z,50.90
2017-07-21T08:18:29.966Z,50.20
2017-07-21T08:20:58.306Z,52.20
2017-07-21T08:23:28.100Z,53.70
2017-07-21T08:25:56.402Z,53.00
2017-07-21T08:28:25.875Z,50.90
2017-07-21T08:30:54.148Z,51.30
2017-07-21T08:33:22.418Z,52.40
2017-07-21T08:35:50.734Z,51.70
2017-07-21T08:38:19.007Z,50.10
2017-07-21T08:40:47.278Z,49.30
2017-07-21T08:43:15.987Z,51.00
2017-07-21T08:45:44.263Z,48.00
2017-07-21T08:48:12.547Z,48.40
2017-07-21T08:50:40.896Z,47.60
2017-07-21T08:53:09.175Z,46.10
2017-07-21T08:55:38.621Z,48.70
2017-07-21T08:58:06.970Z,46.00
2017-07-21T09:00:35.244Z,49.00
2017-07-21T09:03:03.506Z,45.90
2017-07-21T09:05:31.851Z,46.40
2017-07-21T09:08:00.122Z,45.10
2017-07-21T09:12:57.946Z,41.20
2017-07-21T09:15:26.232Z,44.10
2017-07-21T09:17:54.503Z,42.00
2017-07-21T09:20:22.826Z,42.30
2017-07-21T09:22:51.873Z,41.10
2017-07-21T09:25:20.149Z,43.20
2017-07-21T09:27:49.975Z,41.70
2017-07-21T09:30:18.250Z,41.20
2017-07-21T09:32:46.522Z,41.80
2017-07-21T09:35:14.860Z,39.70
2017-07-21T09:37:43.162Z,40.00
2017-07-21T09:40:11.442Z,38.80
2017-07-21T09:42:39.772Z,37.10
2017-07-21T09:45:09.204Z,37.60
2017-07-21T09:47:38.271Z,38.80
2017-07-21T09:50:07.797Z,37.70
2017-07-21T09:52:36.066Z,39.40
2017-07-21T09:55:04.346Z,43.30
2017-07-21T09:57:32.674Z,42.40
2017-07-21T10:00:01.711Z,41.70
2017-07-21T10:04:59.939Z,38.00
2017-07-21T10:07:29.724Z,38.20
2017-07-21T10:09:58.009Z,36.10
2017-07-21T10:14:56.258Z,42.30
2017-07-21T10:19:54.478Z,41.30
2017-07-21T10:22:23.519Z,38.30
2017-07-21T10:24:52.928Z,38.70
2017-07-21T10:27:21.251Z,36.90
2017-07-21T10:29:49.523Z,41.70
2017-07-21T10:32:17.799Z,40.20
2017-07-21T10:34:46.139Z,39.60
2017-07-21T10:37:15.174Z,38.60
2017-07-21T10:39:44.222Z,41.30
2017-07-21T10:42:13.316Z,39.90
2017-07-21T10:47:11.499Z,35.90
2017-07-21T10:49:39.855Z,35.90
2017-07-21T10:52:09.283Z,35.50
2017-07-21T10:57:08.274Z,35.30
2017-07-21T10:59:36.563Z,41.70
2017-07-21T11:02:04.835Z,42.50
2017-07-21T11:04:33.150Z,38.60
2017-07-21T11:07:01.423Z,38.50
2017-07-21T11:09:30.830Z,36.30
2017-07-21T11:11:59.150Z,34.60
2017-07-21T11:14:27.455Z,35.90
2017-07-21T11:16:55.737Z,37.80
2017-07-21T11:21:54.345Z,37.60
2017-07-21T11:24:23.379Z,38.30
2017-07-21T11:26:51.707Z,37.20
2017-07-21T11:29:19.974Z,37.90
2017-07-21T11:31:48.248Z,41.50
2017-07-21T11:34:17.694Z,37.60
2017-07-21T11:39:15.857Z,37.40
2017-07-21T11:41:44.198Z,38.90
2017-07-21T11:44:12.486Z,39.70
2017-07-21T11:46:40.776Z,38.90
2017-07-21T11:49:09.097Z,37.50
2017-07-21T11:51:38.891Z,39.50
2017-07-21T11:54:07.162Z,39.30
2017-07-21T11:56:35.478Z,37.50
2017-07-21T11:59:03.760Z,38.80
2017-07-21T12:01:33.167Z,36.70
2017-07-21T12:04:03.002Z,35.80
2017-07-21T12:06:31.276Z,37.00
2017-07-21T12:08:59.548Z,36.30
2017-07-21T12:11:29.383Z,38.20
2017-07-21T12:16:27.595Z,38.20
2017-07-21T12:18:55.924Z,35.00
2017-07-21T12:21:24.196Z,32.00
2017-07-21T12:23:52.469Z,35.70
2017-07-21T12:26:20.783Z,34.50
2017-07-21T12:28:49.060Z,38.00
2017-07-21T12:31:17.334Z,39.30
2017-07-21T12:33:45.671Z,39.30
2017-07-21T12:36:15.447Z,34.80
2017-07-21T12:38:45.258Z,34.30
2017-07-21T12:41:13.601Z,33.70
2017-07-21T12:43:43.014Z,35.40
2017-07-21T12:46:12.086Z,33.30
2017-07-21T12:51:11.440Z,34.80
2017-07-21T12:53:40.178Z,35.70
2017-07-21T12:56:08.890Z,33.90
2017-07-21T12:58:37.559Z,37.20
2017-07-21T13:01:05.867Z,36.00
2017-07-21T13:03:34.184Z,40.10
2017-07-21T13:06:02.455Z,37.20
2017-07-21T13:08:32.267Z,36.60
2017-07-21T13:13:30.471Z,32.70
2017-07-21T13:15:58.795Z,33.70
2017-07-21T13:18:27.125Z,34.80
2017-07-21T13:20:55.407Z,38.20
2017-07-21T13:23:24.853Z,35.10
2017-07-21T13:25:54.666Z,36.80
2017-07-21T13:28:22.943Z,35.50
2017-07-21T13:30:52.016Z,35.50
2017-07-21T13:33:21.090Z,37.60
2017-07-21T13:35:49.370Z,36.70
2017-07-21T13:40:47.607Z,34.60
2017-07-21T13:43:15.878Z,36.30
2017-07-21T13:45:44.211Z,36.10
2017-07-21T13:48:12.532Z,35.80
2017-07-21T13:50:40.829Z,37.40
2017-07-21T13:53:09.155Z,36.90
2017-07-21T13:55:38.251Z,37.00
2017-07-21T13:58:06.531Z,36.40
2017-07-21T14:00:35.610Z,37.10
2017-07-21T14:03:05.067Z,36.00
2017-07-21T14:05:33.344Z,36.30
2017-07-21T14:08:01.656Z,36.50
2017-07-21T14:13:00.226Z,36.20
2017-07-21T14:15:28.938Z,35.60
2017-07-21T14:17:57.267Z,37.70
2017-07-21T14:20:25.538Z,38.40
2017-07-21T14:22:53.850Z,39.60
2017-07-21T14:25:22.162Z,38.60
2017-07-21T14:27:50.437Z,38.60
2017-07-21T14:30:19.889Z,38.20
2017-07-21T14:32:48.194Z,41.20
2017-07-21T14:35:16.469Z,40.70
2017-07-21T14:37:46.278Z,37.50
2017-07-21T14:40:14.587Z,38.90
2017-07-21T14:42:42.866Z,41.20
2017-07-21T14:47:41.520Z,38.80
2017-07-21T14:50:10.560Z,39.20
2017-07-21T14:52:39.631Z,38.10
2017-07-21T14:55:07.971Z,39.40
2017-07-21T14:57:37.021Z,39.70
2017-07-21T15:00:05.327Z,40.90
2017-07-21T15:02:33.642Z,39.20
2017-07-21T15:10:01.414Z,43.20
2017-07-21T15:12:30.450Z,41.80
2017-07-21T15:14:58.761Z,40.70
2017-07-21T15:17:28.214Z,42.00
2017-07-21T15:19:56.487Z,41.60
2017-07-21T15:22:24.795Z,41.40
2017-07-21T15:24:53.106Z,41.50
2017-07-21T15:27:22.888Z,41.60
2017-07-21T15:29:51.196Z,41.60
2017-07-21T15:32:20.646Z,43.00
2017-07-21T15:34:50.657Z,45.50
2017-07-21T15:37:18.957Z,44.50
2017-07-21T15:42:16.766Z,43.60
2017-07-21T15:44:45.072Z,45.60
2017-07-21T15:47:13.386Z,44.50
2017-07-21T15:49:41.688Z,44.40
2017-07-21T15:52:11.512Z,42.70
2017-07-21T15:54:39.833Z,43.30
2017-07-21T15:57:08.688Z,43.80
2017-07-21T15:59:38.162Z,43.60
2017-07-21T16:02:06.558Z,43.10
2017-07-21T16:07:04.727Z,45.30
2017-07-21T16:09:33.098Z,44.60
2017-07-21T16:12:02.135Z,43.70
2017-07-21T16:14:30.406Z,43.90
2017-07-21T16:16:58.741Z,45.40
2017-07-21T16:19:28.553Z,43.80
2017-07-21T16:21:56.834Z,43.90
2017-07-21T16:24:25.146Z,43.10
2017-07-21T16:26:53.419Z,44.00
2017-07-21T16:29:21.690Z,43.80
2017-07-21T16:31:50.019Z,44.70
2017-07-21T16:34:19.430Z,43.90
2017-07-21T16:36:47.710Z,42.90
2017-07-21T16:39:16.023Z,44.30
2017-07-21T16:41:44.314Z,44.20
2017-07-21T16:44:12.591Z,44.60
2017-07-21T16:46:40.947Z,44.20
2017-07-21T16:49:10.751Z,44.60
2017-07-21T16:51:39.063Z,45.10
2017-07-21T16:54:08.183Z,44.40
2017-07-21T16:56:37.219Z,45.40
2017-07-21T16:59:06.262Z,44.80
2017-07-21T17:01:34.602Z,45.40
2017-07-21T17:04:02.879Z,45.10
2017-07-21T17:06:31.142Z,45.40
2017-07-21T17:08:59.475Z,45.00
2017-07-21T17:11:28.906Z,46.20
2017-07-21T17:13:57.206Z,45.50
2017-07-21T17:16:25.539Z,45.50
2017-07-21T17:18:53.811Z,45.60
2017-07-21T17:21:22.224Z,45.40
2017-07-21T17:23:50.558Z,45.20
2017-07-21T17:26:18.831Z,45.30
2017-07-21T17:28:48.615Z,45.10
2017-07-21T17:31:18.438Z,45.10
2017-07-21T17:33:46.722Z,45.60
2017-07-21T17:36:14.990Z,46.60
2017-07-21T17:38:44.094Z,47.00
2017-07-21T17:41:12.383Z,46.80
2017-07-21T17:43:40.678Z,47.30
2017-07-21T17:46:09.163Z,45.90
2017-07-21T17:48:38.587Z,46.30
2017-07-21T17:51:06.867Z,46.70
2017-07-21T17:53:35.960Z,47.60
2017-07-21T17:56:04.995Z,47.80
2017-07-21T17:58:33.271Z,47.20
2017-07-21T18:01:01.594Z,47.30
2017-07-21T18:03:29.864Z,47.60
2017-07-21T18:05:58.144Z,47.10
2017-07-21T18:08:26.462Z,47.60
2017-07-21T18:13:24.630Z,47.60
2017-07-21T18:18:22.860Z,48.40
2017-07-21T18:20:51.130Z,49.00
2017-07-21T18:23:20.230Z,49.40
2017-07-21T18:25:50.537Z,49.40
2017-07-21T18:28:18.814Z,49.40
2017-07-21T18:30:47.130Z,49.40
2017-07-21T18:33:15.403Z,50.00
2017-07-21T18:35:43.692Z,50.70
2017-07-21T18:38:12.814Z,50.90
2017-07-21T18:40:41.102Z,51.50
2017-07-21T18:43:09.391Z,52.00
2017-07-21T18:45:37.723Z,53.00
2017-07-21T18:48:06.003Z,53.40
2017-07-21T18:50:34.275Z,54.80
2017-07-21T18:53:02.991Z,54.70
2017-07-21T18:55:31.663Z,54.60
2017-07-21T18:57:59.930Z,54.90
2017-07-21T19:00:29.758Z,56.30
2017-07-21T19:02:58.062Z,56.10
2017-07-21T19:05:26.334Z,56.40
2017-07-21T19:07:56.179Z,56.40
2017-07-21T19:10:24.467Z,56.50
2017-07-21T19:12:52.738Z,57.30
2017-07-21T19:17:52.742Z,58.00
2017-07-21T19:20:21.014Z,59.40
2017-07-21T19:22:50.847Z,59.30
2017-07-21T19:25:19.528Z,60.20
2017-07-21T19:27:47.794Z,60.80
2017-07-21T19:30:16.130Z,59.80
2017-07-21T19:32:45.910Z,61.10
2017-07-21T19:37:43.787Z,60.50
2017-07-21T19:40:12.486Z,62.00
2017-07-21T19:42:41.535Z,61.10
2017-07-21T19:47:39.812Z,62.00
2017-07-21T19:50:08.131Z,61.70
2017-07-21T19:52:37.223Z,64.70
2017-07-21T19:55:06.294Z,62.70
2017-07-21T19:57:35.344Z,63.00
2017-07-21T20:00:04.422Z,63.70
2017-07-21T20:02:32.690Z,64.60
2017-07-21T20:05:00.957Z,63.50
2017-07-21T20:07:29.283Z,63.10
2017-07-21T20:09:57.558Z,63.60
2017-07-21T20:12:25.836Z,65.20
2017-07-21T20:14:54.170Z,63.30
2017-07-21T20:17:22.448Z,63.60
2017-07-21T20:19:51.487Z,63.30
2017-07-21T20:22:20.579Z,62.00
2017-07-21T20:24:49.615Z,61.10
2017-07-21T20:29:47.823Z,64.60
2017-07-21T20:32:16.107Z,64.00
2017-07-21T20:34:44.395Z,64.20
2017-07-21T20:37:12.725Z,64.50
2017-07-21T20:39:41.040Z,64.40
2017-07-21T20:42:10.464Z,65.30
2017-07-21T20:44:38.803Z,66.30
2017-07-21T20:47:07.098Z,66.40
2017-07-21T20:49:35.370Z,65.90
2017-07-21T20:52:03.694Z,64.90
2017-07-21T20:54:31.974Z,65.70
2017-07-21T20:59:30.195Z,65.00
2017-07-21T21:01:59.254Z,66.20
2017-07-21T21:04:28.299Z,66.40
2017-07-21T21:06:57.396Z,66.10
2017-07-21T21:09:25.662Z,65.20
2017-07-21T21:11:53.943Z,63.90
2017-07-21T21:14:22.261Z,65.00
2017-07-21T21:16:50.534Z,63.10
2017-07-21T21:19:18.807Z,63.90
2017-07-21T21:21:48.275Z,64.60
2017-07-21T21:24:17.318Z,64.60
2017-07-21T21:26:46.354Z,64.80
2017-07-21T21:29:14.691Z,66.10
2017-07-21T21:31:42.978Z,66.80
2017-07-21T21:34:11.290Z,67.00
2017-07-21T21:36:39.649Z,65.80
2017-07-21T21:39:07.927Z,65.90
2017-07-21T21:41:36.982Z,64.80
2017-07-21T21:44:06.434Z,64.70
2017-07-21T21:49:05.354Z,65.20
2017-07-21T21:54:03.568Z,64.20
2017-07-21T21:56:31.840Z,64.70
2017-07-21T21:59:00.199Z,64.60
2017-07-21T22:01:28.501Z,64.90
2017-07-21T22:03:56.783Z,65.90
2017-07-21T22:06:25.124Z,65.60
2017-07-21T22:08:53.396Z,66.60
2017-07-21T22:11:22.822Z,67.10
2017-07-21T22:13:51.147Z,67.50
2017-07-21T22:16:19.419Z,67.20
2017-07-21T22:18:47.699Z,66.00
2017-07-21T22:21:17.542Z,67.30
2017-07-21T22:26:16.083Z,67.90
2017-07-21T22:28:45.187Z,68.70
2017-07-21T22:36:13.690Z,67.60
2017-07-21T22:38:41.984Z,67.50
2017-07-21T22:41:10.271Z,69.40
2017-07-21T22:43:38.632Z,68.80
2017-07-21T22:46:06.911Z,70.20
2017-07-21T22:48:36.326Z,70.00
2017-07-21T22:51:04.647Z,70.50
2017-07-21T22:53:32.918Z,71.90
2017-07-21T22:58:31.147Z,71.30
2017-07-21T23:03:29.691Z,70.10
2017-07-21T23:05:58.044Z,70.40
2017-07-21T23:08:27.096Z,70.60
2017-07-21T23:13:25.379Z,72.70
2017-07-21T23:15:53.655Z,73.20
2017-07-21T23:18:21.930Z,71.80
2017-07-21T23:20:51.759Z,71.50
2017-07-21T23:23:20.039Z,72.40
2017-07-21T23:25:48.311Z,74.30
2017-07-21T23:30:46.123Z,73.10
2017-07-21T23:33:14.415Z,72.40
2017-07-21T23:40:42.910Z,74.10
2017-07-21T23:45:41.600Z,72.40
2017-07-21T23:48:09.890Z,72.60
2017-07-21T23:50:39.040Z,73.80
2017-07-21T23:53:08.844Z,73.10
2017-07-21T23:55:37.114Z,74.00
2017-07-21T23:58:05.434Z,75.90
